Scappoose, OR

7:30 AM PDT on August 22, 2014 (GMT -0700)
Foothills North of North Plains | Change Station
CLOSE
Current Station
Personal Weather Station
Location: North Plains, OR
Elevation: 875 ft
Nearby Weather Stations

Elev 875 ft 45.65 °N, 122.96 °W | Updated 8 minutes ago

Mostly Cloudy
Mostly Cloudy
59.2 °F
Feels Like 59.2 °F
N
-
Wind Variable Wind from North

Today
High -- | Low -- °F
--% Chance of Precip.
Yesterday
High -- | Low -- °F
Precip. -- in
6:20 AM 8:07 PM
Waning Crescent, 8% visible
Pressure 30.01 in
Visibility 10.0 miles
Clouds Few 3100 ft
Scattered Clouds 4500 ft
Mostly Cloudy 7500 ft
Dew Point 50 °F
Humidity 71%
Rainfall -999.00 in
Snow Depth 0 in
UV 0 out of 12
Pollen 3.50 out of 12
Air Quality Not available.
Flu Activity Not available.
METAR KSPB 221353Z AUTO 01003KT 10SM FEW031 SCT045 BKN075 16/12 A3001 RMK AO2 SLP162 T01610122

More Conditions Fewer Conditions

Pressure 30.01 in
Visibility 10.0 miles
Clouds Few 3100 ft
Scattered Clouds 4500 ft
Mostly Cloudy 7500 ft
Dew Point 50 °F
Humidity 71%
Rainfall -999.00 in
Snow Depth 0 in
UV 0 out of 12
Pollen 3.50 out of 12
Air Quality Not available.
Flu Activity Not available.
METAR KSPB 221353Z AUTO 01003KT 10SM FEW031 SCT045 BKN075 16/12 A3001 RMK AO2 SLP162 T01610122

More Conditions Fewer Conditions

10-Day Weather Forecast

Almanac

Astronomy

Aug. 22, 2014 Rise Set
Actual Time 6:20 AM PDT 8:07 PM PDT
Civil Twilight 5:49 AM PDT 8:39 PM PDT
Nautical Twilight 5:10 AM PDT 9:17 PM PDT
Astronomical Twilight 4:28 AM PDT 9:59 PM PDT
Moon 3:44 AM PDT 6:22 PM PDT
Length of Visible Light 14h 50m
Length of Day
13h 46m
Tomorrow will be 2m 59s shorter.
Waning Crescent, 8% of the Moon is Illuminated
Today
Waning Crescent
Aug 25
New
Sep 2
First Quarter
Sep 8
Full
Sep 15
Last Quarter

Today's Extremes

State Highs State Lows

Community

WunderPhotos

Upload Photos

1,746,180 photos uploaded!

WunderBlogs® & News

By Dr. Jeff Masters
Director of Meteorology, Weather Underground
By Kari Strenfel
Meteorologist, Weather Underground
By Christopher C. Burt
Weather Historian, Weather Underground
August 22, 2014
August 22, 2014
August 22, 2014

Nearby

Snow Depth

Station Depth Elevation
Seine Creek 0 in 2000 ft
North Fork 1 in 3120 ft
Blazed Alder 0 in 3650 ft
Greenpoint 1 in 3200 ft
Red Hill 0 in 4400 ft

Earthquake Activity

City Distance Mag. Time & Date
No recent earthquake activity has been reported nearby.
Minimum magnitude displayed is 2.5.

Coastal Water Temperatures

Place Temperature
No Stations Reporting

Nearby Weather Stations